sensor_id;sensor_type;location;lat;lon;timestamp;pressure;altitude;pressure_sealevel;temperature;humidity
56894;BME280;43392;50.078;13.704;2023-03-08T00:01:21;95233.19;;;3.02;68.11
56894;BME280;43392;50.078;13.704;2023-03-08T00:03:50;95235.03;;;3.01;68.49
56894;BME280;43392;50.078;13.704;2023-03-08T00:06:18;95233.19;;;3.02;68.56
56894;BME280;43392;50.078;13.704;2023-03-08T00:08:46;95254.38;;;3.02;68.96
56894;BME280;43392;50.078;13.704;2023-03-08T00:11:13;95237.41;;;3.03;69.48
56894;BME280;43392;50.078;13.704;2023-03-08T00:13:41;95246.94;;;3.04;69.38
56894;BME280;43392;50.078;13.704;2023-03-08T00:16:09;95248.53;;;3.05;69.98
56894;BME280;43392;50.078;13.704;2023-03-08T00:18:37;95257.25;;;3.05;70.11
56894;BME280;43392;50.078;13.704;2023-03-08T00:21:05;95264.44;;;3.05;70.47
56894;BME280;43392;50.078;13.704;2023-03-08T00:23:33;95258.84;;;3.06;70.24
56894;BME280;43392;50.078;13.704;2023-03-08T00:26:01;95258.56;;;3.08;70.96
56894;BME280;43392;50.078;13.704;2023-03-08T00:28:28;95259.91;;;3.05;70.82
56894;BME280;43392;50.078;13.704;2023-03-08T00:30:55;95263.09;;;3.07;70.88
56894;BME280;43392;50.078;13.704;2023-03-08T00:33:23;95263.63;;;3.09;71.18
56894;BME280;43392;50.078;13.704;2023-03-08T00:35:57;95263.63;;;3.09;71.29
56894;BME280;43392;50.078;13.704;2023-03-08T00:38:23;95264.16;;;3.06;71.59
56894;BME280;43392;50.078;13.704;2023-03-08T00:40:50;95259.91;;;3.05;71.46
56894;BME280;43392;50.078;13.704;2023-03-08T00:43:18;95273.94;;;3.06;71.34
56894;BME280;43392;50.078;13.704;2023-03-08T00:45:45;95263.63;;;3.04;71.73
56894;BME280;43392;50.078;13.704;2023-03-08T00:48:12;95265.47;;;3.04;71.69
56894;BME280;43392;50.078;13.704;2023-03-08T00:50:38;95268.94;;;3.04;72.21
56894;BME280;43392;50.078;13.704;2023-03-08T00:53:05;95266.00;;;3.01;72.08
56894;BME280;43392;50.078;13.704;2023-03-08T00:55:32;95270.00;;;2.98;72.16
56894;BME280;43392;50.078;13.704;2023-03-08T00:57:59;95266.81;;;2.96;72.60
56894;BME280;43392;50.078;13.704;2023-03-08T01:00:28;95261.81;;;2.95;72.54
56894;BME280;43392;50.078;13.704;2023-03-08T01:02:55;95261.81;;;2.95;72.65
56894;BME280;43392;50.078;13.704;2023-03-08T01:05:21;95276.91;;;2.94;72.92
56894;BME280;43392;50.078;13.704;2023-03-08T01:07:48;95269.22;;;2.93;73.02
56894;BME280;43392;50.078;13.704;2023-03-08T01:10:15;95269.22;;;2.93;73.33
56894;BME280;43392;50.078;13.704;2023-03-08T01:12:42;95275.56;;;2.92;73.62
56894;BME280;43392;50.078;13.704;2023-03-08T01:15:09;95273.22;;;2.90;73.60
56894;BME280;43392;50.078;13.704;2023-03-08T01:17:37;95272.13;;;2.91;73.72
56894;BME280;43392;50.078;13.704;2023-03-08T01:20:04;95272.41;;;2.90;73.72
56894;BME280;43392;50.078;13.704;2023-03-08T01:22:31;95273.97;;;2.91;73.65
56894;BME280;43392;50.078;13.704;2023-03-08T01:24:58;95279.03;;;2.92;73.78
56894;BME280;43392;50.078;13.704;2023-03-08T01:27:24;95265.78;;;2.92;73.88
56894;BME280;43392;50.078;13.704;2023-03-08T01:29:51;95268.44;;;2.92;73.77
56894;BME280;43392;50.078;13.704;2023-03-08T01:32:18;95266.59;;;2.93;73.85
56894;BME280;43392;50.078;13.704;2023-03-08T01:34:45;95258.09;;;2.96;73.83
56894;BME280;43392;50.078;13.704;2023-03-08T01:37:12;95263.38;;;2.96;73.91
56894;BME280;43392;50.078;13.704;2023-03-08T01:39:39;95257.03;;;2.97;73.87
56894;BME280;43392;50.078;13.704;2023-03-08T01:42:05;95265.50;;;2.99;73.75
56894;BME280;43392;50.078;13.704;2023-03-08T01:44:48;95267.91;;;3.00;73.64
56894;BME280;43392;50.078;13.704;2023-03-08T01:47:17;95267.91;;;3.00;73.55
56894;BME280;43392;50.078;13.704;2023-03-08T01:49:46;95259.41;;;2.98;73.52
56894;BME280;43392;50.078;13.704;2023-03-08T01:52:14;95264.97;;;3.02;73.88
56894;BME280;43392;50.078;13.704;2023-03-08T01:54:45;95261.25;;;3.03;73.59
56894;BME280;43392;50.078;13.704;2023-03-08T01:57:16;95260.47;;;3.02;73.67
56894;BME280;43392;50.078;13.704;2023-03-08T01:59:44;95265.75;;;3.02;73.54
56894;BME280;43392;50.078;13.704;2023-03-08T02:02:12;95256.22;;;3.01;73.39
56894;BME280;43392;50.078;13.704;2023-03-08T02:04:39;95260.19;;;2.99;73.49
56894;BME280;43392;50.078;13.704;2023-03-08T02:07:07;95255.44;;;2.96;73.34
56894;BME280;43392;50.078;13.704;2023-03-08T02:09:34;95254.66;;;2.95;73.39
56894;BME280;43392;50.078;13.704;2023-03-08T02:12:03;95263.38;;;2.96;73.33
56894;BME280;43392;50.078;13.704;2023-03-08T02:14:31;95252.78;;;2.91;73.47
56894;BME280;43392;50.078;13.704;2023-03-08T02:16:58;95266.31;;;2.94;73.43
56894;BME280;43392;50.078;13.704;2023-03-08T02:19:28;95267.34;;;2.93;73.38
56894;BME280;43392;50.078;13.704;2023-03-08T02:22:08;95264.47;;;2.95;73.40
56894;BME280;43392;50.078;13.704;2023-03-08T02:24:36;95262.84;;;2.94;73.54
56894;BME280;43392;50.078;13.704;2023-03-08T02:27:06;95267.09;;;2.95;73.27
56894;BME280;43392;50.078;13.704;2023-03-08T02:29:34;95261.28;;;2.93;73.05
56894;BME280;43392;50.078;13.704;2023-03-08T02:32:01;95269.47;;;2.96;73.07
56894;BME280;43392;50.078;13.704;2023-03-08T02:34:27;95260.22;;;2.94;73.10
56894;BME280;43392;50.078;13.704;2023-03-08T02:36:54;95268.16;;;2.94;72.99
56894;BME280;43392;50.078;13.704;2023-03-08T02:39:20;95266.03;;;2.96;72.87
56894;BME280;43392;50.078;13.704;2023-03-08T02:41:48;95269.47;;;2.96;73.10
56894;BME280;43392;50.078;13.704;2023-03-08T02:44:15;95258.63;;;2.98;72.63
56894;BME280;43392;50.078;13.704;2023-03-08T02:46:42;95246.44;;;3.02;72.76
56894;BME280;43392;50.078;13.704;2023-03-08T02:49:08;95254.38;;;3.02;72.40
56894;BME280;43392;50.078;13.704;2023-03-08T02:51:35;95251.72;;;3.02;72.43
56894;BME280;43392;50.078;13.704;2023-03-08T02:54:01;95261.25;;;3.03;72.12
56894;BME280;43392;50.078;13.704;2023-03-08T02:56:28;95255.94;;;3.03;72.08
56894;BME280;43392;50.078;13.704;2023-03-08T02:58:56;95245.63;;;3.01;72.14
56894;BME280;43392;50.078;13.704;2023-03-08T03:01:23;95267.84;;;3.05;71.93
56894;BME280;43392;50.078;13.704;2023-03-08T03:03:52;95272.38;;;3.05;71.62
56894;BME280;43392;50.078;13.704;2023-03-08T03:06:19;95269.16;;;3.08;71.63
56894;BME280;43392;50.078;13.704;2023-03-08T03:08:46;95266.28;;;3.09;71.46
56894;BME280;43392;50.078;13.704;2023-03-08T03:11:14;95262.53;;;3.10;71.24
56894;BME280;43392;50.078;13.704;2023-03-08T03:13:41;95263.88;;;3.13;70.99
56894;BME280;43392;50.078;13.704;2023-03-08T03:16:10;95260.97;;;3.14;70.93
56894;BME280;43392;50.078;13.704;2023-03-08T03:18:37;95271.28;;;3.16;70.95
56894;BME280;43392;50.078;13.704;2023-03-08T03:21:06;95265.69;;;3.17;70.73
56894;BME280;43392;50.078;13.704;2023-03-08T03:23:33;95274.44;;;3.18;70.59
56894;BME280;43392;50.078;13.704;2023-03-08T03:26:03;95269.16;;;3.18;70.49
56894;BME280;43392;50.078;13.704;2023-03-08T03:28:30;95281.34;;;3.19;70.50
56894;BME280;43392;50.078;13.704;2023-03-08T03:30:57;95287.16;;;3.21;70.54
56894;BME280;43392;50.078;13.704;2023-03-08T03:33:26;95283.44;;;3.22;70.44
56894;BME280;43392;50.078;13.704;2023-03-08T03:35:52;95276.03;;;3.24;70.36
56894;BME280;43392;50.078;13.704;2023-03-08T03:38:19;95287.13;;;3.26;70.12
56894;BME280;43392;50.078;13.704;2023-03-08T03:40:45;95286.34;;;3.25;69.53
56894;BME280;43392;50.078;13.704;2023-03-08T03:43:12;95285.00;;;3.28;69.87
56894;BME280;43392;50.078;13.704;2023-03-08T03:45:39;95283.97;;;3.29;69.66
56894;BME280;43392;50.078;13.704;2023-03-08T03:48:05;95287.66;;;3.28;69.52
56894;BME280;43392;50.078;13.704;2023-03-08T03:50:33;95292.13;;;3.32;69.60
56894;BME280;43392;50.078;13.704;2023-03-08T03:53:00;95309.13;;;3.31;69.46
56894;BME280;43392;50.078;13.704;2023-03-08T03:55:26;95304.59;;;3.32;69.38
56894;BME280;43392;50.078;13.704;2023-03-08T03:57:53;95295.59;;;3.33;69.28
56894;BME280;43392;50.078;13.704;2023-03-08T04:00:20;95293.97;;;3.37;69.42
56894;BME280;43392;50.078;13.704;2023-03-08T04:02:47;95290.28;;;3.38;69.11
56894;BME280;43392;50.078;13.704;2023-03-08T04:05:14;95301.66;;;3.39;69.40
56894;BME280;43392;50.078;13.704;2023-03-08T04:07:42;95315.16;;;3.37;68.97
56894;BME280;43392;50.078;13.704;2023-03-08T04:10:09;95303.81;;;3.37;68.91
56894;BME280;43392;50.078;13.704;2023-03-08T04:12:36;95312.53;;;3.37;68.92
56894;BME280;43392;50.078;13.704;2023-03-08T04:15:03;95308.03;;;3.38;68.73
56894;BME280;43392;50.078;13.704;2023-03-08T04:17:30;95308.31;;;3.36;68.81
56894;BME280;43392;50.078;13.704;2023-03-08T04:19:57;95307.78;;;3.34;68.85
56894;BME280;43392;50.078;13.704;2023-03-08T04:22:23;95303.25;;;3.34;68.82
56894;BME280;43392;50.078;13.704;2023-03-08T04:24:51;95304.06;;;3.35;68.68
56894;BME280;43392;50.078;13.704;2023-03-08T04:27:18;95309.63;;;3.33;68.81
56894;BME280;43392;50.078;13.704;2023-03-08T04:29:44;95312.53;;;3.32;68.73
56894;BME280;43392;50.078;13.704;2023-03-08T04:32:11;95316.25;;;3.31;68.75
56894;BME280;43392;50.078;13.704;2023-03-08T04:34:37;95312.28;;;3.28;68.83
56894;BME280;43392;50.078;13.704;2023-03-08T04:37:04;95300.09;;;3.27;69.09
56894;BME280;43392;50.078;13.704;2023-03-08T04:39:31;95312.28;;;3.28;68.85
56894;BME280;43392;50.078;13.704;2023-03-08T04:41:59;95305.69;;;3.26;68.86
56894;BME280;43392;50.078;13.704;2023-03-08T04:44:25;95307.28;;;3.27;68.81
56894;BME280;43392;50.078;13.704;2023-03-08T04:46:52;95302.22;;;3.25;68.97
56894;BME280;43392;50.078;13.704;2023-03-08T04:49:19;95308.03;;;3.27;68.90
56894;BME280;43392;50.078;13.704;2023-03-08T04:51:45;95300.91;;;3.28;69.05
56894;BME280;43392;50.078;13.704;2023-03-08T04:54:12;95288.75;;;3.27;68.86
56894;BME280;43392;50.078;13.704;2023-03-08T04:56:38;95289.50;;;3.27;68.55
56894;BME280;43392;50.078;13.704;2023-03-08T04:59:06;95294.03;;;3.27;68.54
56894;BME280;43392;50.078;13.704;2023-03-08T05:01:33;95294.03;;;3.27;68.64
56894;BME280;43392;50.078;13.704;2023-03-08T05:03:59;95278.16;;;3.27;68.80
56894;BME280;43392;50.078;13.704;2023-03-08T05:06:26;95285.00;;;3.28;68.68
56894;BME280;43392;50.078;13.704;2023-03-08T05:08:53;95290.59;;;3.26;68.90
56894;BME280;43392;50.078;13.704;2023-03-08T05:11:22;95295.59;;;3.28;68.68
56894;BME280;43392;50.078;13.704;2023-03-08T05:13:49;95300.09;;;3.27;68.70
56894;BME280;43392;50.078;13.704;2023-03-08T05:16:17;95299.84;;;3.29;68.61
56894;BME280;43392;50.078;13.704;2023-03-08T05:18:43;95305.66;;;3.31;68.59
56894;BME280;43392;50.078;13.704;2023-03-08T05:21:12;95295.88;;;3.31;68.45
56894;BME280;43392;50.078;13.704;2023-03-08T05:23:39;95304.06;;;3.30;68.55
56894;BME280;43392;50.078;13.704;2023-03-08T05:26:07;95303.28;;;3.29;68.17
56894;BME280;43392;50.078;13.704;2023-03-08T05:28:34;95304.63;;;3.27;68.20
56894;BME280;43392;50.078;13.704;2023-03-08T05:31:03;95308.88;;;3.23;68.12
56894;BME280;43392;50.078;13.704;2023-03-08T05:33:32;95321.88;;;3.19;68.18
56894;BME280;43392;50.078;13.704;2023-03-08T05:35:58;95323.19;;;3.17;68.29
56894;BME280;43392;50.078;13.704;2023-03-08T05:38:25;95321.06;;;3.14;68.12
56894;BME280;43392;50.078;13.704;2023-03-08T05:40:52;95318.72;;;3.07;67.99
56894;BME280;43392;50.078;13.704;2023-03-08T05:43:19;95333.28;;;3.10;68.11
56894;BME280;43392;50.078;13.704;2023-03-08T05:46:04;95325.56;;;3.08;68.07
56894;BME280;43392;50.078;13.704;2023-03-08T05:48:34;95320.56;;;3.07;68.17
56894;BME280;43392;50.078;13.704;2023-03-08T05:51:03;95314.19;;;3.08;68.19
56894;BME280;43392;50.078;13.704;2023-03-08T05:53:31;95303.34;;;3.09;68.06
56894;BME280;43392;50.078;13.704;2023-03-08T05:56:06;95300.41;;;3.11;68.05
56894;BME280;43392;50.078;13.704;2023-03-08T05:58:33;95298.03;;;3.14;68.01
56894;BME280;43392;50.078;13.704;2023-03-08T06:01:07;95301.22;;;3.16;67.91
56894;BME280;43392;50.078;13.704;2023-03-08T06:03:35;95303.84;;;3.16;67.80
56894;BME280;43392;50.078;13.704;2023-03-08T06:06:02;95301.72;;;3.18;67.69
56894;BME280;43392;50.078;13.704;2023-03-08T06:08:29;95290.09;;;3.19;67.87
56894;BME280;43392;50.078;13.704;2023-03-08T06:10:55;95299.88;;;3.19;67.97
56894;BME280;43392;50.078;13.704;2023-03-08T06:13:22;95291.94;;;3.19;67.92
56894;BME280;43392;50.078;13.704;2023-03-08T06:15:53;95291.94;;;3.19;67.76
56894;BME280;43392;50.078;13.704;2023-03-08T06:18:19;95282.13;;;3.19;67.71
56894;BME280;43392;50.078;13.704;2023-03-08T06:20:55;95287.44;;;3.19;68.01
56894;BME280;43392;50.078;13.704;2023-03-08T06:23:22;95279.72;;;3.23;67.91
56894;BME280;43392;50.078;13.704;2023-03-08T06:25:49;95290.31;;;3.28;67.69
56894;BME280;43392;50.078;13.704;2023-03-08T06:28:15;95292.13;;;3.32;67.55
56894;BME280;43392;50.078;13.704;2023-03-08T06:30:42;95288.69;;;3.32;67.46
56894;BME280;43392;50.078;13.704;2023-03-08T06:33:09;95303.81;;;3.37;67.49
56894;BME280;43392;50.078;13.704;2023-03-08T06:35:35;95312.00;;;3.35;67.22
56894;BME280;43392;50.078;13.704;2023-03-08T06:38:03;95319.94;;;3.35;67.38
56894;BME280;43392;50.078;13.704;2023-03-08T06:40:30;95323.69;;;3.34;67.04
56894;BME280;43392;50.078;13.704;2023-03-08T06:42:56;95327.09;;;3.34;67.16
56894;BME280;43392;50.078;13.704;2023-03-08T06:45:23;95318.38;;;3.34;66.89
56894;BME280;43392;50.078;13.704;2023-03-08T06:47:49;95305.91;;;3.34;66.54
56894;BME280;43392;50.078;13.704;2023-03-08T06:50:16;95308.84;;;3.33;66.50
56894;BME280;43392;50.078;13.704;2023-03-08T06:52:43;95315.72;;;3.34;66.63
56894;BME280;43392;50.078;13.704;2023-03-08T06:55:11;95311.47;;;3.38;68.46
56894;BME280;43392;50.078;13.704;2023-03-08T06:57:38;95325.03;;;3.85;68.82
56894;BME280;43392;50.078;13.704;2023-03-08T07:00:05;95327.13;;;3.93;66.16
56894;BME280;43392;50.078;13.704;2023-03-08T07:02:33;95327.97;;;3.89;65.81
56894;BME280;43392;50.078;13.704;2023-03-08T07:05:00;95335.41;;;3.82;65.63
56894;BME280;43392;50.078;13.704;2023-03-08T07:07:26;95333.06;;;3.75;65.48
56894;BME280;43392;50.078;13.704;2023-03-08T07:09:53;95324.34;;;3.70;65.37
56894;BME280;43392;50.078;13.704;2023-03-08T07:12:21;95317.16;;;3.75;65.46
56894;BME280;43392;50.078;13.704;2023-03-08T07:14:47;95324.00;;;3.86;64.85
56894;BME280;43392;50.078;13.704;2023-03-08T07:17:14;95333.72;;;4.01;64.70
56894;BME280;43392;50.078;13.704;2023-03-08T07:19:41;95328.09;;;4.13;64.40
56894;BME280;43392;50.078;13.704;2023-03-08T07:22:07;95344.78;;;4.18;64.17
56894;BME280;43392;50.078;13.704;2023-03-08T07:24:34;95350.34;;;4.17;64.08
56894;BME280;43392;50.078;13.704;2023-03-08T07:27:01;95347.16;;;4.15;63.90
56894;BME280;43392;50.078;13.704;2023-03-08T07:29:29;95336.03;;;4.18;64.10
56894;BME280;43392;50.078;13.704;2023-03-08T07:31:55;95348.75;;;4.21;63.94
56894;BME280;43392;50.078;13.704;2023-03-08T07:34:22;95345.00;;;4.22;63.50
56894;BME280;43392;50.078;13.704;2023-03-08T07:36:49;95343.94;;;4.23;63.11
56894;BME280;43392;50.078;13.704;2023-03-08T07:39:16;95347.59;;;4.32;63.50
56894;BME280;43392;50.078;13.704;2023-03-08T07:41:42;95331.91;;;4.40;63.19
56894;BME280;43392;50.078;13.704;2023-03-08T07:44:09;95334.25;;;4.47;62.64
56894;BME280;43392;50.078;13.704;2023-03-08T07:46:37;95341.66;;;4.50;62.72
56894;BME280;43392;50.078;13.704;2023-03-08T07:49:03;95338.69;;;4.56;62.80
56894;BME280;43392;50.078;13.704;2023-03-08T07:51:34;95331.19;;;4.63;62.24
56894;BME280;43392;50.078;13.704;2023-03-08T07:54:01;95328.50;;;4.68;62.31
56894;BME280;43392;50.078;13.704;2023-03-08T07:56:28;95326.41;;;4.65;61.95
56894;BME280;43392;50.078;13.704;2023-03-08T07:58:55;95330.31;;;4.73;61.57
56894;BME280;43392;50.078;13.704;2023-03-08T08:01:22;95330.63;;;4.72;61.04
56894;BME280;43392;50.078;13.704;2023-03-08T08:03:50;95326.66;;;4.69;60.89
56894;BME280;43392;50.078;13.704;2023-03-08T08:06:16;95318.69;;;4.69;60.56
56894;BME280;43392;50.078;13.704;2023-03-08T08:08:43;95325.84;;;4.68;60.36
56894;BME280;43392;50.078;13.704;2023-03-08T08:11:11;95324.25;;;4.67;60.61
56894;BME280;43392;50.078;13.704;2023-03-08T08:13:37;95325.31;;;4.72;60.79
56894;BME280;43392;50.078;13.704;2023-03-08T08:16:05;95310.13;;;4.77;60.50
56894;BME280;43392;50.078;13.704;2023-03-08T08:18:32;95312.16;;;4.85;60.43
56894;BME280;43392;50.078;13.704;2023-03-08T08:21:02;95329.91;;;4.90;59.81
56894;BME280;43392;50.078;13.704;2023-03-08T08:23:29;95338.16;;;4.88;59.96
56894;BME280;43392;50.078;13.704;2023-03-08T08:25:56;95323.00;;;4.94;59.40
56894;BME280;43392;50.078;13.704;2023-03-08T08:28:23;95315.53;;;4.96;59.73
56894;BME280;43392;50.078;13.704;2023-03-08T08:30:58;95312.03;;;5.00;59.64
56894;BME280;43392;50.078;13.704;2023-03-08T08:33:26;95314.41;;;5.02;58.87
56894;BME280;43392;50.078;13.704;2023-03-08T08:35:53;95313.63;;;5.01;59.56
56894;BME280;43392;50.078;13.704;2023-03-08T08:38:21;95313.03;;;5.04;59.52
56894;BME280;43392;50.078;13.704;2023-03-08T08:40:48;95317.25;;;5.10;59.99
56894;BME280;43392;50.078;13.704;2023-03-08T08:43:15;95306.06;;;5.13;59.28
56894;BME280;43392;50.078;13.704;2023-03-08T08:45:42;95305.28;;;5.13;59.30
56894;BME280;43392;50.078;13.704;2023-03-08T08:48:10;95303.41;;;5.13;59.21
56894;BME280;43392;50.078;13.704;2023-03-08T08:50:37;95300.50;;;5.10;58.82
56894;BME280;43392;50.078;13.704;2023-03-08T08:53:03;95292.09;;;5.03;59.35
56894;BME280;43392;50.078;13.704;2023-03-08T08:55:31;95277.72;;;5.04;58.75
56894;BME280;43392;50.078;13.704;2023-03-08T08:57:58;95291.00;;;5.04;59.26
56894;BME280;43392;50.078;13.704;2023-03-08T09:00:25;95295.53;;;5.03;59.14
56894;BME280;43392;50.078;13.704;2023-03-08T09:02:51;95301.63;;;5.04;58.90
56894;BME280;43392;50.078;13.704;2023-03-08T09:05:18;95300.81;;;5.08;59.19
56894;BME280;43392;50.078;13.704;2023-03-08T09:07:45;95290.13;;;5.13;59.66
56894;BME280;43392;50.078;13.704;2023-03-08T09:10:11;95279.41;;;5.18;59.06
56894;BME280;43392;50.078;13.704;2023-03-08T09:12:39;95278.66;;;5.18;58.78
56894;BME280;43392;50.078;13.704;2023-03-08T09:15:07;95279.72;;;5.17;58.99
56894;BME280;43392;50.078;13.704;2023-03-08T09:17:36;95273.59;;;5.16;59.19
56894;BME280;43392;50.078;13.704;2023-03-08T09:20:03;95267.72;;;5.19;59.31
56894;BME280;43392;50.078;13.704;2023-03-08T09:22:32;95272.03;;;5.15;58.94
56894;BME280;43392;50.078;13.704;2023-03-08T09:24:59;95275.81;;;5.09;59.61
56894;BME280;43392;50.078;13.704;2023-03-08T09:27:26;95272.34;;;5.09;59.88
56894;BME280;43392;50.078;13.704;2023-03-08T09:29:54;95273.16;;;5.09;59.53
56894;BME280;43392;50.078;13.704;2023-03-08T09:32:20;95267.84;;;5.09;59.78
56894;BME280;43392;50.078;13.704;2023-03-08T09:34:47;95264.91;;;5.11;60.16
56894;BME280;43392;50.078;13.704;2023-03-08T09:37:13;95263.56;;;5.13;59.91
56894;BME280;43392;50.078;13.704;2023-03-08T09:39:40;95259.31;;;5.12;59.83
56894;BME280;43392;50.078;13.704;2023-03-08T09:42:15;95257.22;;;5.09;60.32
56894;BME280;43392;50.078;13.704;2023-03-08T09:45:06;95258.84;;;5.05;60.46
56894;BME280;43392;50.078;13.704;2023-03-08T09:47:46;95253.03;;;5.03;60.86
56894;BME280;43392;50.078;13.704;2023-03-08T09:50:36;95250.66;;;5.02;61.19
56894;BME280;43392;50.078;13.704;2023-03-08T09:53:13;95240.03;;;5.02;61.47
56894;BME280;43392;50.078;13.704;2023-03-08T09:55:46;95243.78;;;5.01;61.35
56894;BME280;43392;50.078;13.704;2023-03-08T09:58:19;95227.84;;;5.01;61.74
56894;BME280;43392;50.078;13.704;2023-03-08T10:00:49;95233.69;;;4.98;61.73
56894;BME280;43392;50.078;13.704;2023-03-08T10:06:10;95235.81;;;5.01;62.21
56894;BME280;43392;50.078;13.704;2023-03-08T10:08:46;95230.69;;;5.04;62.67
56894;BME280;43392;50.078;13.704;2023-03-08T10:11:18;95216.63;;;5.04;63.13
56894;BME280;43392;50.078;13.704;2023-03-08T10:13:48;95213.97;;;5.04;63.54
56894;BME280;43392;50.078;13.704;2023-03-08T10:16:20;95211.91;;;5.01;63.84
56894;BME280;43392;50.078;13.704;2023-03-08T10:18:50;95210.59;;;4.98;64.53
56894;BME280;43392;50.078;13.704;2023-03-08T10:21:19;95222.28;;;4.97;64.55
56894;BME280;43392;50.078;13.704;2023-03-08T10:23:58;95216.97;;;4.97;64.62
56894;BME280;43392;50.078;13.704;2023-03-08T10:26:26;95216.41;;;5.00;65.46
56894;BME280;43392;50.078;13.704;2023-03-08T10:28:53;95216.41;;;5.00;65.44
56894;BME280;43392;50.078;13.704;2023-03-08T10:31:24;95218.78;;;5.02;65.73
56894;BME280;43392;50.078;13.704;2023-03-08T10:33:57;95202.84;;;5.02;65.91
56894;BME280;43392;50.078;13.704;2023-03-08T10:36:26;95208.19;;;4.97;66.37
56894;BME280;43392;50.078;13.704;2023-03-08T10:39:05;95192.78;;;4.99;66.62
56894;BME280;43392;50.078;13.704;2023-03-08T10:41:38;95191.50;;;4.96;66.72
56894;BME280;43392;50.078;13.704;2023-03-08T10:44:12;95185.38;;;4.96;67.32
56894;BME280;43392;50.078;13.704;2023-03-08T10:46:46;95187.75;;;4.97;67.18
56894;BME280;43392;50.078;13.704;2023-03-08T10:49:15;95184.25;;;5.02;67.45
56894;BME280;43392;50.078;13.704;2023-03-08T10:51:51;95187.63;;;5.07;67.41
56894;BME280;43392;50.078;13.704;2023-03-08T10:54:18;95177.88;;;5.03;67.50
56894;BME280;43392;50.078;13.704;2023-03-08T10:56:55;95184.03;;;4.98;67.97
56894;BME280;43392;50.078;13.704;2023-03-08T10:59:26;95184.09;;;4.93;68.37
56894;BME280;43392;50.078;13.704;2023-03-08T11:02:00;95171.31;;;4.95;68.65
56894;BME280;43392;50.078;13.704;2023-03-08T11:04:28;95172.91;;;4.96;68.92
56894;BME280;43392;50.078;13.704;2023-03-08T11:06:55;95174.97;;;4.99;69.97
56894;BME280;43392;50.078;13.704;2023-03-08T11:09:24;95164.88;;;5.01;70.18
56894;BME280;43392;50.078;13.704;2023-03-08T11:11:52;95160.34;;;5.02;69.93
56894;BME280;43392;50.078;13.704;2023-03-08T11:14:19;95154.47;;;5.05;70.20
56894;BME280;43392;50.078;13.704;2023-03-08T11:16:54;95152.03;;;5.08;70.40
56894;BME280;43392;50.078;13.704;2023-03-08T11:19:56;95147.22;;;5.10;70.94
56894;BME280;43392;50.078;13.704;2023-03-08T11:22:35;95150.09;;;5.14;71.59
56894;BME280;43392;50.078;13.704;2023-03-08T11:25:22;95137.59;;;5.14;72.30
56894;BME280;43392;50.078;13.704;2023-03-08T11:28:04;95132.28;;;5.14;71.90
56894;BME280;43392;50.078;13.704;2023-03-08T11:30:43;95125.13;;;5.15;72.16
56894;BME280;43392;50.078;13.704;2023-03-08T11:33:34;95116.34;;;5.14;72.26
56894;BME280;43392;50.078;13.704;2023-03-08T11:36:10;95107.09;;;5.12;71.91
56894;BME280;43392;50.078;13.704;2023-03-08T11:38:38;95095.16;;;5.09;72.46
56894;BME280;43392;50.078;13.704;2023-03-08T11:41:13;95090.34;;;5.11;72.84
56894;BME280;43392;50.078;13.704;2023-03-08T11:43:54;95077.06;;;5.11;73.47
56894;BME280;43392;50.078;13.704;2023-03-08T11:46:25;95066.75;;;5.10;73.18
56894;BME280;43392;50.078;13.704;2023-03-08T11:49:06;95052.59;;;5.14;72.80
56894;BME280;43392;50.078;13.704;2023-03-08T11:51:43;95054.59;;;5.22;73.36
56894;BME280;43392;50.078;13.704;2023-03-08T11:54:18;95049.28;;;5.22;72.95
56894;BME280;43392;50.078;13.704;2023-03-08T11:56:46;95039.81;;;5.16;73.38
56894;BME280;43392;50.078;13.704;2023-03-08T11:59:21;95026.88;;;5.10;73.83
56894;BME280;43392;50.078;13.704;2023-03-08T12:01:55;95009.78;;;4.97;74.01
56894;BME280;43392;50.078;13.704;2023-03-08T12:04:23;95004.78;;;4.96;74.36
56894;BME280;43392;50.078;13.704;2023-03-08T12:06:53;95008.56;;;4.90;74.32
56894;BME280;43392;50.078;13.704;2023-03-08T12:09:25;95005.66;;;4.91;74.86
56894;BME280;43392;50.078;13.704;2023-03-08T12:11:57;95010.97;;;4.91;74.99
56894;BME280;43392;50.078;13.704;2023-03-08T12:14:29;95005.16;;;4.89;75.72
56894;BME280;43392;50.078;13.704;2023-03-08T12:17:03;95013.69;;;4.86;75.77
56894;BME280;43392;50.078;13.704;2023-03-08T12:19:38;95012.09;;;4.85;76.13
56894;BME280;43392;50.078;13.704;2023-03-08T12:22:24;95015.53;;;4.86;76.17
56894;BME280;43392;50.078;13.704;2023-03-08T12:24:54;95023.28;;;4.82;75.88
56894;BME280;43392;50.078;13.704;2023-03-08T12:27:28;95019.63;;;4.78;76.77
56894;BME280;43392;50.078;13.704;2023-03-08T12:30:02;95014.63;;;4.77;76.76
56894;BME280;43392;50.078;13.704;2023-03-08T12:32:30;95003.19;;;4.76;76.86
56894;BME280;43392;50.078;13.704;2023-03-08T12:35:01;95004.84;;;4.72;77.18
56894;BME280;43392;50.078;13.704;2023-03-08T12:37:30;94995.84;;;4.68;77.14
56894;BME280;43392;50.078;13.704;2023-03-08T12:39:59;94983.69;;;4.67;77.57
56894;BME280;43392;50.078;13.704;2023-03-08T12:42:35;94992.69;;;4.66;77.66
56894;BME280;43392;50.078;13.704;2023-03-08T12:45:07;94987.97;;;4.63;77.71
56894;BME280;43392;50.078;13.704;2023-03-08T12:47:34;94997.56;;;4.59;78.52
56894;BME280;43392;50.078;13.704;2023-03-08T12:50:08;94992.03;;;4.55;78.64
56894;BME280;43392;50.078;13.704;2023-03-08T12:52:37;95001.94;;;4.50;78.91
56894;BME280;43392;50.078;13.704;2023-03-08T12:55:05;94985.00;;;4.46;79.15
56894;BME280;43392;50.078;13.704;2023-03-08T12:57:38;94984.56;;;4.39;79.58
56894;BME280;43392;50.078;13.704;2023-03-08T13:00:24;94985.66;;;4.38;80.16
56894;BME280;43392;50.078;13.704;2023-03-08T13:02:58;94983.56;;;4.35;80.47
56894;BME280;43392;50.078;13.704;2023-03-08T13:05:29;94984.13;;;4.32;80.83
56894;BME280;43392;50.078;13.704;2023-03-08T13:08:05;94981.41;;;4.37;80.34
56894;BME280;43392;50.078;13.704;2023-03-08T13:10:34;94961.69;;;4.43;80.49
56894;BME280;43392;50.078;13.704;2023-03-08T13:13:20;94957.91;;;4.49;79.84